WET,Max TemperatureF,Mean TemperatureF,Min TemperatureF,Max Dew PointF,MeanDew PointF,Min DewpointF,Max Humidity, Mean Humidity, Min Humidity, Max Sea Level PressureIn, Mean Sea Level PressureIn, Min Sea Level PressureIn, Max VisibilityMiles, Mean VisibilityMiles, Min VisibilityMiles, Max Wind SpeedMPH, Mean Wind SpeedMPH, Max Gust SpeedMPH,PrecipitationIn, CloudCover, Events, WindDirDegrees
2013-3-1,71,55,39,41,37,32,93,52,17,30.08,29.96,29.85,6,6,6,14,7,,0.00,2,,83
2013-3-2,70,54,39,48,42,37,82,58,22,29.92,29.85,29.78,6,6,4,15,3,,0.00,4,,271
2013-3-3,75,60,46,54,45,38,93,61,18,29.92,29.78,29.53,6,6,5,12,3,,0.02,5,Rain,73
2013-3-4,66,56,45,55,54,48,100,84,54,29.53,29.43,29.38,6,5,3,15,7,,0.31,4,Rain,253
2013-3-5,68,60,51,54,50,45,100,72,43,29.74,29.54,29.42,6,6,2,33,12,51,0.03,3,Rain,254
2013-3-6,74,62,51,61,54,46,100,68,47,30.04,29.91,29.74,6,6,5,25,11,33,0.00,4,,277
2013-3-7,79,66,53,63,56,54,100,74,40,30.06,30.02,29.93,6,6,3,16,4,,0.00,2,,298
2013-3-8,78,66,53,63,57,52,94,77,42,30.06,30.03,29.94,6,6,5,18,6,,0.00,4,,281
2013-3-9,75,66,57,59,55,46,100,73,32,30.09,30.03,29.92,6,6,2,18,7,,0.00,5,,284
2013-3-10,71,62,50,54,49,41,100,70,30,30.15,30.08,30.00,6,6,6,15,6,,0.00,5,,262
2013-3-11,72,60,48,50,46,41,100,66,24,30.17,30.10,30.00,6,6,6,7,4,,0.00,2,,257
2013-3-12,73,59,45,54,47,39,93,66,24,30.09,30.01,29.92,6,6,5,14,6,,0.00,6,,258
2013-3-13,69,57,45,63,55,50,100,85,59,30.04,29.98,29.91,6,5,2,16,7,,0.08,5,Rain,285
2013-3-14,71,61,51,54,47,39,94,65,28,30.06,30.00,29.93,6,6,4,12,8,21,0.00,5,,52
2013-3-15,82,65,48,52,44,34,94,52,14,30.01,29.96,29.85,6,6,5,8,5,,0.00,6,,107
2013-3-16,89,72,55,54,47,37,77,44,14,29.95,29.85,29.71,6,6,5,21,5,30,0.00,5,,101
2013-3-17,77,68,59,57,49,34,82,51,12,29.89,29.76,29.64,6,6,5,23,13,33,0.00,3,,274
2013-3-18,80,68,56,57,55,52,94,69,30,29.92,29.87,29.76,6,6,5,12,4,,0.00,6,,286
2013-3-19,79,69,59,57,53,45,94,63,22,29.98,29.84,29.73,6,6,5,26,11,39,0.04,5,Rain,270
2013-3-20,77,66,55,57,54,47,100,73,25,30.09,30.03,29.96,6,6,3,12,7,,0.00,4,Rain,33
2013-3-21,80,65,50,57,53,48,100,69,27,30.02,29.98,29.86,6,6,3,13,5,,0.00,2,,280
2013-3-22,74,62,50,55,50,45,100,70,26,30.04,29.95,29.83,6,6,3,15,6,,0.00,5,,275
2013-3-23,64,58,51,55,50,39,100,81,42,29.98,29.88,29.81,6,5,3,22,10,33,0.12,5,Rain,269
2013-3-24,71,58,46,50,45,37,100,64,23,30.12,30.03,29.97,6,6,6,8,4,,0.00,3,,306
2013-3-25,75,60,45,50,46,40,100,62,19,30.11,30.05,29.96,6,6,6,10,4,,0.00,,,48
2013-3-26,77,63,49,54,49,43,100,65,21,30.04,29.99,29.85,6,6,6,21,3,,0.00,4,,281
2013-3-27,74,62,50,54,50,48,94,68,32,29.99,29.91,29.79,6,6,6,21,6,32,0.00,5,,257
2013-3-28,75,65,55,56,51,45,100,66,25,30.18,30.05,29.93,6,6,6,15,6,26,0.00,4,,302
2013-3-29,83,68,52,59,50,36,94,59,11,30.24,30.16,30.06,6,6,6,9,3,,0.00,5,,275
2013-3-30,85,69,53,59,52,43,94,60,15,30.24,30.16,30.01,6,6,4,10,4,,0.00,3,,303
2013-3-31,83,68,53,63,56,45,100,77,19,30.12,30.03,29.87,6,3,0,18,4,,0.00,7,Fog,269